Time;durP1;ratioP1;P1;durP2;ratioP2;P2;SDS_P1;SDS_P2;PMS_P1;PMS_P2;Temp;Humidity;BMP_temperature;BMP_pressure;BME280_temperature;BME280_humidity;BME280_pressure;Samples;Min_cycle;Max_cycle;Signal;HPM_P1;HPM_P2
2022/10/06 00:02:05;;;;;;;;;;;10.30;99.90;;;;;;5094348;28;19916;-75
2022/10/06 00:04:31;;;;;;;;;;;10.30;99.90;;;;;;5093627;28;19915;-75
2022/10/06 00:06:56;;;;;;;;;;;10.30;99.90;;;;;;5092605;28;19912;-75
2022/10/06 00:09:22;;;;;;;;;;;10.30;99.90;;;;;;5094256;28;19919;-75
2022/10/06 00:11:47;;;;;;;;;;;10.40;99.90;;;;;;5092841;28;19919;-76
2022/10/06 00:14:13;;;;;;;;;;;10.40;99.90;;;;;;5093682;28;19915;-75
2022/10/06 00:16:38;;;;;;;;;;;10.40;99.90;;;;;;5093512;28;19908;-75
2022/10/06 00:19:04;;;;;;;;;;;10.40;99.90;;;;;;5094128;28;19908;-75
2022/10/06 00:21:30;;;;;;;;;;;10.40;99.90;;;;;;5093524;28;19908;-75
2022/10/06 00:23:55;;;;;;;;;;;10.50;99.90;;;;;;5093648;28;19919;-75
2022/10/06 00:26:21;;;;;;;;;;;10.50;99.90;;;;;;5092563;28;19908;-74
2022/10/06 00:28:46;;;;;;;;;;;10.50;99.90;;;;;;5093430;28;20142;-75
2022/10/06 00:31:12;;;;;;;;;;;10.50;99.90;;;;;;5093359;28;19951;-75
2022/10/06 00:33:38;;;;;;;;;;;10.60;99.90;;;;;;5093045;28;19912;-75
2022/10/06 00:36:03;;;;;;;;;;;10.60;99.90;;;;;;5093729;28;20268;-74
2022/10/06 00:38:29;;;;;;;;;;;10.50;99.90;;;;;;5093039;28;20336;-73
2022/10/06 00:40:54;;;;;;;;;;;10.60;99.90;;;;;;5093696;28;19915;-73
2022/10/06 00:43:40;;;;;;;;;;;10.60;99.90;;;;;;5093124;28;20015;-74
2022/10/06 00:46:07;;;;;;;;;;;10.60;99.90;;;;;;5093428;28;19916;-73
2022/10/06 00:48:32;;;;;;;;;;;10.70;99.90;;;;;;5093089;28;19919;-75
2022/10/06 00:50:58;;;;;;;;;;;10.70;99.90;;;;;;5092969;28;20315;-74
2022/10/06 00:53:26;;;;;;;;;;;10.80;99.90;;;;;;5093315;28;19944;-75
2022/10/06 00:55:53;;;;;;;;;;;10.70;99.90;;;;;;5092554;28;19908;-74
2022/10/06 00:58:19;;;;;;;;;;;10.70;99.90;;;;;;5093251;28;19946;-74
2022/10/06 01:00:46;;;;;;;;;;;10.80;99.90;;;;;;5092588;28;19961;-74
2022/10/06 01:03:16;;;;;;;;;;;10.70;99.90;;;;;;5093081;28;19915;-74
2022/10/06 01:05:49;;;;;;;;;;;10.70;99.90;;;;;;5092634;28;19944;-74
2022/10/06 01:08:15;;;;;;;;;;;10.70;99.90;;;;;;5092746;28;19934;-75
2022/10/06 01:10:40;;;;;;;;;;;10.70;99.90;;;;;;5091952;28;20408;-75
2022/10/06 01:13:06;;;;;;;;;;;10.70;99.90;;;;;;5093338;28;19951;-75
2022/10/06 01:15:32;;;;;;;;;;;10.70;99.90;;;;;;5092524;28;19915;-76
2022/10/06 01:18:01;;;;;;;;;;;10.70;99.90;;;;;;5091606;28;19947;-75
2022/10/06 01:20:28;;;;;;;;;;;10.60;99.90;;;;;;5092886;28;19908;-74
2022/10/06 01:22:54;;;;;;;;;;;10.70;99.90;;;;;;5092273;28;19908;-75
2022/10/06 01:25:20;;;;;;;;;;;10.70;99.90;;;;;;5092879;28;19948;-75
2022/10/06 01:27:52;;;;;;;;;;;10.70;99.90;;;;;;5092139;28;19997;-75
2022/10/06 01:30:21;;;;;;;;;;;10.70;99.90;;;;;;5092368;28;19923;-74
2022/10/06 01:32:46;;;;;;;;;;;10.70;99.90;;;;;;5092247;28;19916;-75
2022/10/06 01:35:12;;;;;;;;;;;10.70;99.90;;;;;;5092531;28;19908;-74
2022/10/06 01:37:38;;;;;;;;;;;10.70;99.90;;;;;;5092219;28;19959;-74
2022/10/06 01:40:03;;;;;;;;;;;10.70;99.90;;;;;;5092885;28;19908;-74
2022/10/06 01:42:31;;;;;;;;;;;10.70;99.90;;;;;;5092479;28;20254;-73
2022/10/06 01:44:58;;;;;;;;;;;10.70;99.90;;;;;;5092898;28;19915;-74
2022/10/06 01:47:23;;;;;;;;;;;10.80;99.90;;;;;;5092430;28;19951;-74
2022/10/06 01:49:49;;;;;;;;;;;10.80;99.90;;;;;;5091687;28;19966;-74
2022/10/06 01:52:14;;;;;;;;;;;10.80;99.90;;;;;;5091049;28;20411;-74
2022/10/06 01:54:40;;;;;;;;;;;10.80;99.90;;;;;;5091788;28;19908;-74
2022/10/06 01:57:07;;;;;;;;;;;10.80;99.90;;;;;;5092622;28;19915;-74
2022/10/06 01:59:33;;;;;;;;;;;10.90;99.90;;;;;;5092452;28;19908;-76
2022/10/06 02:01:59;;;;;;;;;;;10.90;99.90;;;;;;5092144;28;20319;-75
2022/10/06 02:04:24;;;;;;;;;;;10.90;99.90;;;;;;5092292;28;19937;-74
2022/10/06 02:06:50;;;;;;;;;;;10.90;99.90;;;;;;5091897;28;20348;-75
2022/10/06 02:09:16;;;;;;;;;;;11.00;99.90;;;;;;5092563;28;19912;-74
2022/10/06 02:11:42;;;;;;;;;;;10.90;99.90;;;;;;5091423;28;20029;-75
2022/10/06 02:14:07;;;;;;;;;;;11.10;99.90;;;;;;5091978;28;19923;-74
2022/10/06 02:16:34;;;;;;;;;;;11.00;99.90;;;;;;5091167;28;19916;-75
2022/10/06 02:18:59;;;;;;;;;;;11.10;99.90;;;;;;5092230;28;19916;-74
2022/10/06 02:21:25;;;;;;;;;;;11.10;99.90;;;;;;5093025;28;20349;-75
2022/10/06 02:23:50;;;;;;;;;;;11.10;99.90;;;;;;5092276;28;20246;-75
2022/10/06 02:26:17;;;;;;;;;;;11.10;99.90;;;;;;5092258;28;19908;-75
2022/10/06 02:28:43;;;;;;;;;;;11.10;99.90;;;;;;5093303;28;19912;-76
2022/10/06 02:31:09;;;;;;;;;;;11.20;99.90;;;;;;5095532;28;19987;-75
2022/10/06 02:33:35;;;;;;;;;;;11.10;99.90;;;;;;5095243;28;19951;-75
2022/10/06 02:36:01;;;;;;;;;;;11.20;99.90;;;;;;5095909;28;19908;-75
2022/10/06 02:38:27;;;;;;;;;;;11.20;99.90;;;;;;5095780;28;19914;-75
2022/10/06 02:40:53;;;;;;;;;;;11.30;99.90;;;;;;5095431;28;20285;-74
2022/10/06 02:43:19;;;;;;;;;;;11.20;99.90;;;;;;5095767;28;19920;-73
2022/10/06 02:46:13;;;;;;;;;;;11.20;99.90;;;;;;5095278;28;20006;-73
2022/10/06 02:48:39;;;;;;;;;;;11.20;99.90;;;;;;5085647;28;19961;-73
2022/10/06 02:51:07;;;;;;;;;;;11.20;99.90;;;;;;5095215;28;20008;-73
2022/10/06 02:53:33;;;;;;;;;;;11.20;99.90;;;;;;5094423;28;19908;-74
2022/10/06 02:55:59;;;;;;;;;;;11.20;99.90;;;;;;5094624;28;19953;-74
2022/10/06 02:58:25;;;;;;;;;;;11.30;99.90;;;;;;5095487;28;19999;-74
2022/10/06 03:00:51;;;;;;;;;;;11.30;99.90;;;;;;5095057;28;19908;-74
2022/10/06 03:03:16;;;;;;;;;;;11.30;99.90;;;;;;5095346;28;19908;-74
2022/10/06 03:05:42;;;;;;;;;;;11.30;99.90;;;;;;5095006;28;19915;-75
2022/10/06 03:08:09;;;;;;;;;;;11.40;99.90;;;;;;5095182;28;19994;-75
2022/10/06 03:10:34;;;;;;;;;;;11.40;99.90;;;;;;5094161;28;19919;-74
2022/10/06 03:13:00;;;;;;;;;;;11.40;99.90;;;;;;5094458;28;19908;-74
2022/10/06 03:15:26;;;;;;;;;;;11.40;99.90;;;;;;5095164;28;19996;-75
2022/10/06 03:17:51;;;;;;;;;;;11.40;99.90;;;;;;5094507;28;19912;-74
2022/10/06 03:20:17;;;;;;;;;;;11.40;99.90;;;;;;5095357;28;20353;-74
2022/10/06 03:22:42;;;;;;;;;;;11.40;99.90;;;;;;5094604;28;19908;-74
2022/10/06 03:25:08;;;;;;;;;;;11.30;99.90;;;;;;5095119;28;19909;-75
2022/10/06 03:27:34;;;;;;;;;;;11.30;99.90;;;;;;5094806;28;20023;-74
2022/10/06 03:29:59;;;;;;;;;;;11.30;99.90;;;;;;5094229;28;20442;-74
2022/10/06 03:32:25;;;;;;;;;;;11.30;99.90;;;;;;5094348;28;20002;-75
2022/10/06 03:34:52;;;;;;;;;;;11.30;99.90;;;;;;5093967;28;19915;-74
2022/10/06 03:37:18;;;;;;;;;;;11.30;99.90;;;;;;5094864;28;19912;-74
2022/10/06 03:39:43;;;;;;;;;;;11.30;99.90;;;;;;5093426;28;19909;-74
2022/10/06 03:42:09;;;;;;;;;;;11.40;99.90;;;;;;5094645;28;19908;-74
2022/10/06 03:44:35;;;;;;;;;;;11.40;99.90;;;;;;5094841;28;19924;-74
2022/10/06 03:47:01;;;;;;;;;;;11.40;99.90;;;;;;5093946;28;19916;-74
2022/10/06 03:49:26;;;;;;;;;;;11.50;99.90;;;;;;5094489;28;19999;-74
2022/10/06 03:51:52;;;;;;;;;;;11.50;99.90;;;;;;5092029;28;19908;-74
2022/10/06 03:54:18;;;;;;;;;;;11.50;99.90;;;;;;5094159;28;19915;-74
2022/10/06 03:56:43;;;;;;;;;;;11.50;99.90;;;;;;5093935;28;19919;-74
2022/10/06 03:59:10;;;;;;;;;;;11.50;99.90;;;;;;5094371;28;20356;-74
2022/10/06 04:01:38;;;;;;;;;;;11.50;99.90;;;;;;5094501;28;19912;-74
2022/10/06 04:04:04;;;;;;;;;;;11.60;99.90;;;;;;5093657;28;19908;-74
2022/10/06 04:06:31;;;;;;;;;;;11.60;99.90;;;;;;5094245;28;19908;-75
2022/10/06 04:08:57;;;;;;;;;;;11.70;99.90;;;;;;5093675;28;19915;-75
2022/10/06 04:11:30;;;;;;;;;;;11.70;99.90;;;;;;5093920;28;20353;-74
2022/10/06 04:13:58;;;;;;;;;;;11.80;99.90;;;;;;5092351;28;19912;-75
2022/10/06 04:16:26;;;;;;;;;;;11.80;99.90;;;;;;5093950;28;19947;-75
2022/10/06 04:18:53;;;;;;;;;;;11.80;99.90;;;;;;5093420;28;19960;-75
2022/10/06 04:21:19;;;;;;;;;;;11.80;99.90;;;;;;5073863;28;19977;-75
2022/10/06 04:23:45;;;;;;;;;;;11.80;99.90;;;;;;5073216;28;19908;-75
2022/10/06 04:26:14;;;;;;;;;;;11.80;99.90;;;;;;5073750;28;19908;-75
2022/10/06 04:28:42;;;;;;;;;;;11.80;99.90;;;;;;5105863;28;19916;-74
2022/10/06 04:31:28;;;;;;;;;;;11.80;99.90;;;;;;5073707;28;19915;-75
2022/10/06 04:33:54;;;;;;;;;;;11.90;99.90;;;;;;5072821;28;19909;-75
2022/10/06 04:36:22;;;;;;;;;;;11.90;99.90;;;;;;5073234;28;20370;-75
2022/10/06 04:38:55;;;;;;;;;;;11.90;99.90;;;;;;5072899;28;19919;-75
2022/10/06 04:41:22;;;;;;;;;;;11.90;99.90;;;;;;5073302;28;19930;-75
2022/10/06 04:43:48;;;;;;;;;;;11.90;99.90;;;;;;5072069;28;19974;-75
2022/10/06 04:46:14;;;;;;;;;;;12.00;99.90;;;;;;5073488;28;19948;-75
2022/10/06 04:48:40;;;;;;;;;;;11.90;99.90;;;;;;5073056;28;19916;-75
2022/10/06 04:51:08;;;;;;;;;;;12.00;99.90;;;;;;5072515;28;20423;-75
2022/10/06 04:53:34;;;;;;;;;;;12.00;99.90;;;;;;5072958;28;19915;-75
2022/10/06 04:56:04;;;;;;;;;;;12.10;99.90;;;;;;5071992;28;20375;-75
2022/10/06 04:58:30;;;;;;;;;;;12.10;99.90;;;;;;5073242;28;19954;-75
2022/10/06 05:00:56;;;;;;;;;;;12.00;99.90;;;;;;5072482;28;19916;-75
2022/10/06 05:03:21;;;;;;;;;;;11.90;99.90;;;;;;5071928;28;19957;-75
2022/10/06 05:05:47;;;;;;;;;;;11.90;99.90;;;;;;5072462;28;19909;-75
2022/10/06 05:08:13;;;;;;;;;;;11.80;99.90;;;;;;5072888;28;20003;-75
2022/10/06 05:10:38;;;;;;;;;;;11.80;99.90;;;;;;5072738;28;19913;-76
2022/10/06 05:13:05;;;;;;;;;;;11.70;99.90;;;;;;5071973;28;19920;-75
2022/10/06 05:15:30;;;;;;;;;;;11.70;99.90;;;;;;5072400;28;19915;-75
2022/10/06 05:17:56;;;;;;;;;;;11.70;99.90;;;;;;5072265;28;19908;-75
2022/10/06 05:20:21;;;;;;;;;;;11.70;99.90;;;;;;5073005;28;19930;-75
2022/10/06 05:22:47;;;;;;;;;;;11.70;99.90;;;;;;5072165;28;19924;-75
2022/10/06 05:25:13;;;;;;;;;;;11.60;99.90;;;;;;5072736;28;19915;-75
2022/10/06 05:27:39;;;;;;;;;;;11.60;99.90;;;;;;5072657;28;20304;-75
2022/10/06 05:30:05;;;;;;;;;;;11.70;99.90;;;;;;5104604;28;19956;-74
2022/10/06 05:32:30;;;;;;;;;;;11.70;99.90;;;;;;5072673;28;19916;-76
2022/10/06 05:34:56;;;;;;;;;;;11.70;99.90;;;;;;5072026;28;19908;-74
2022/10/06 05:37:21;;;;;;;;;;;11.60;99.90;;;;;;5072550;28;19908;-74
2022/10/06 05:39:47;;;;;;;;;;;11.70;99.90;;;;;;5072291;28;19999;-75
2022/10/06 05:42:12;;;;;;;;;;;11.70;99.90;;;;;;5072660;28;19908;-75
2022/10/06 05:44:38;;;;;;;;;;;11.80;99.90;;;;;;5072677;28;20402;-74
2022/10/06 05:47:04;;;;;;;;;;;11.80;99.90;;;;;;5072054;28;20349;-75
2022/10/06 05:49:29;;;;;;;;;;;11.80;99.90;;;;;;5104961;28;19920;-75
2022/10/06 05:51:55;;;;;;;;;;;11.90;99.90;;;;;;5104454;28;19999;-73
2022/10/06 05:54:20;;;;;;;;;;;11.90;99.90;;;;;;5072130;28;20365;-76
2022/10/06 05:56:46;;;;;;;;;;;11.90;99.90;;;;;;5072120;28;19909;-76
2022/10/06 05:59:11;;;;;;;;;;;11.90;99.90;;;;;;5072422;28;19909;-76
2022/10/06 06:01:38;;;;;;;;;;;11.90;99.90;;;;;;5071044;28;19915;-76
2022/10/06 06:04:05;;;;;;;;;;;11.80;99.90;;;;;;5074055;28;19909;-75
2022/10/06 06:06:35;;;;;;;;;;;11.80;99.90;;;;;;5076122;28;19915;-75
2022/10/06 06:09:17;;;;;;;;;;;11.80;99.90;;;;;;5080248;28;19922;-76
2022/10/06 06:11:44;;;;;;;;;;;11.70;99.90;;;;;;5096521;28;20032;-75
2022/10/06 06:15:59;;;;;;;;;;;11.70;99.90;;;;;;5094676;28;19915;-75
2022/10/06 06:17:05;;;;;;;;;;;11.70;99.90;;;;;;5095279;28;19912;-75
2022/10/06 06:19:30;;;;;;;;;;;11.60;99.90;;;;;;5096544;28;19908;-75
2022/10/06 06:21:56;;;;;;;;;;;11.60;99.90;;;;;;5095309;28;20321;-75
2022/10/06 06:24:21;;;;;;;;;;;11.60;99.90;;;;;;5095840;28;19915;-75
2022/10/06 06:26:47;;;;;;;;;;;11.60;99.90;;;;;;5094423;28;19912;-75
2022/10/06 06:29:13;;;;;;;;;;;11.60;99.90;;;;;;5095915;28;19912;-76
2022/10/06 06:31:42;;;;;;;;;;;11.60;99.90;;;;;;5095722;28;20362;-76
2022/10/06 06:34:10;;;;;;;;;;;11.60;99.90;;;;;;5094454;28;19923;-74
2022/10/06 06:36:39;;;;;;;;;;;11.70;99.90;;;;;;5094255;28;20276;-76
2022/10/06 06:39:12;;;;;;;;;;;11.70;99.90;;;;;;5095339;28;19959;-76
2022/10/06 06:41:39;;;;;;;;;;;11.70;99.90;;;;;;5095553;28;19922;-76
2022/10/06 06:44:06;;;;;;;;;;;11.80;99.90;;;;;;5094224;28;20011;-76
2022/10/06 06:46:33;;;;;;;;;;;11.80;99.90;;;;;;5095487;28;19908;-76
2022/10/06 06:49:03;;;;;;;;;;;11.80;99.90;;;;;;5094785;28;19920;-76
2022/10/06 06:51:29;;;;;;;;;;;11.80;99.90;;;;;;5095556;28;19908;-75
2022/10/06 06:53:58;;;;;;;;;;;11.80;99.90;;;;;;5094174;28;19956;-76
2022/10/06 06:56:23;;;;;;;;;;;11.80;99.90;;;;;;5095150;28;19908;-75
2022/10/06 06:58:49;;;;;;;;;;;11.90;99.90;;;;;;5094965;28;20384;-75
2022/10/06 07:01:16;;;;;;;;;;;11.90;99.90;;;;;;5095423;28;19908;-75
2022/10/06 07:03:44;;;;;;;;;;;12.00;99.90;;;;;;5095078;28;19915;-75
2022/10/06 07:06:10;;;;;;;;;;;12.00;99.90;;;;;;5094606;28;19916;-75
2022/10/06 07:08:37;;;;;;;;;;;12.10;99.90;;;;;;5094930;28;19912;-75
2022/10/06 07:11:12;;;;;;;;;;;12.20;99.90;;;;;;5094778;28;19916;-75
2022/10/06 07:13:38;;;;;;;;;;;12.30;99.90;;;;;;5094519;28;19994;-75
2022/10/06 07:27:01;;;;;;;;;;;12.70;99.90;;;;;;5092795;28;20377;-75
2022/10/06 07:29:26;;;;;;;;;;;12.70;99.90;;;;;;5094207;28;19921;-75
2022/10/06 07:31:53;;;;;;;;;;;12.80;99.90;;;;;;5092259;28;19956;-74
2022/10/06 07:34:18;;;;;;;;;;;12.90;99.90;;;;;;5093780;28;19908;-75
2022/10/06 07:36:45;;;;;;;;;;;12.90;99.90;;;;;;5093978;28;20069;-75
2022/10/06 07:39:11;;;;;;;;;;;13.00;99.90;;;;;;5094224;28;19915;-77
2022/10/06 07:41:37;;;;;;;;;;;13.10;99.90;;;;;;5094742;28;19908;-76
2022/10/06 07:44:04;;;;;;;;;;;13.10;99.90;;;;;;5094176;28;19927;-76
2022/10/06 07:46:30;;;;;;;;;;;13.10;99.90;;;;;;5094595;28;20269;-77
2022/10/06 07:48:55;;;;;;;;;;;13.10;99.90;;;;;;5093880;28;19916;-77
2022/10/06 07:51:23;;;;;;;;;;;13.20;99.90;;;;;;5094327;28;19912;-76
2022/10/06 07:53:49;;;;;;;;;;;13.20;99.90;;;;;;5093373;28;19908;-75
2022/10/06 07:56:15;;;;;;;;;;;13.20;99.90;;;;;;5092824;28;20380;-75
2022/10/06 07:58:43;;;;;;;;;;;13.20;99.90;;;;;;5094313;28;19908;-75
2022/10/06 08:01:10;;;;;;;;;;;13.20;99.90;;;;;;5093677;28;19912;-75
2022/10/06 08:03:36;;;;;;;;;;;13.20;99.90;;;;;;5094228;28;20296;-76
2022/10/06 08:06:02;;;;;;;;;;;13.20;99.90;;;;;;5093519;28;20295;-77
2022/10/06 08:08:36;;;;;;;;;;;13.30;99.90;;;;;;5093786;28;19964;-77
2022/10/06 08:11:03;;;;;;;;;;;13.30;99.90;;;;;;5093478;28;19912;-75
2022/10/06 08:13:31;;;;;;;;;;;13.40;99.90;;;;;;5093448;28;19908;-76
2022/10/06 08:16:02;;;;;;;;;;;13.30;99.90;;;;;;5093191;28;19915;-75
2022/10/06 08:18:27;;;;;;;;;;;13.40;99.90;;;;;;5093717;28;19998;-75
2022/10/06 08:20:54;;;;;;;;;;;13.30;99.90;;;;;;5093629;28;20016;-75
2022/10/06 08:23:20;;;;;;;;;;;13.30;99.90;;;;;;5093869;28;20297;-75
2022/10/06 08:25:49;;;;;;;;;;;13.30;99.90;;;;;;5093209;28;19912;-75
2022/10/06 08:28:15;;;;;;;;;;;13.30;99.90;;;;;;5093442;28;19919;-75
2022/10/06 08:30:40;;;;;;;;;;;13.30;99.90;;;;;;5093233;28;19912;-75
2022/10/06 08:33:06;;;;;;;;;;;13.30;99.90;;;;;;5089805;28;19913;-75
2022/10/06 08:35:32;;;;;;;;;;;13.30;99.90;;;;;;5081804;28;20259;-76
2022/10/06 08:37:57;;;;;;;;;;;13.20;99.90;;;;;;5072838;28;19912;-76
2022/10/06 08:40:24;;;;;;;;;;;13.20;99.90;;;;;;5073026;28;19958;-76
2022/10/06 08:42:52;;;;;;;;;;;13.20;99.90;;;;;;5072456;28;19943;-75
2022/10/06 08:45:23;;;;;;;;;;;13.20;99.90;;;;;;5073416;28;19909;-76
2022/10/06 08:48:08;;;;;;;;;;;13.20;99.90;;;;;;5072672;28;19987;-75
2022/10/06 08:50:45;;;;;;;;;;;13.20;99.90;;;;;;5072546;28;20334;-75
2022/10/06 08:53:17;;;;;;;;;;;13.20;99.90;;;;;;5072469;28;20308;-76
2022/10/06 08:55:43;;;;;;;;;;;13.30;99.90;;;;;;5073241;28;19908;-75
2022/10/06 08:58:11;;;;;;;;;;;13.30;99.90;;;;;;5072046;28;20351;-76
2022/10/06 09:00:37;;;;;;;;;;;13.30;99.90;;;;;;5072663;28;19912;-75
2022/10/06 09:03:03;;;;;;;;;;;13.30;99.90;;;;;;5090783;28;19919;-75
2022/10/06 09:05:30;;;;;;;;;;;13.40;99.90;;;;;;5092381;28;19908;-75
2022/10/06 09:07:57;;;;;;;;;;;13.50;99.90;;;;;;5090787;28;19962;-76
2022/10/06 09:10:23;;;;;;;;;;;13.70;99.90;;;;;;5092924;28;19948;-76
2022/10/06 09:13:07;;;;;;;;;;;13.80;99.90;;;;;;5092799;28;20396;-76
2022/10/06 09:15:32;;;;;;;;;;;14.00;99.90;;;;;;5091825;28;19908;-75
2022/10/06 09:18:01;;;;;;;;;;;14.30;99.90;;;;;;5092235;28;20006;-75
2022/10/06 09:20:34;;;;;;;;;;;14.30;99.90;;;;;;5092963;28;19908;-76
2022/10/06 09:23:02;;;;;;;;;;;14.40;99.90;;;;;;5090893;28;19912;-76
2022/10/06 09:25:28;;;;;;;;;;;14.50;99.90;;;;;;5093041;28;19908;-76
2022/10/06 09:27:55;;;;;;;;;;;14.60;99.90;;;;;;5092447;28;19919;-75
2022/10/06 09:30:21;;;;;;;;;;;14.70;99.90;;;;;;5093033;28;19912;-75
2022/10/06 09:32:50;;;;;;;;;;;14.80;99.90;;;;;;5092744;28;19915;-76
2022/10/06 09:35:22;;;;;;;;;;;14.90;99.90;;;;;;5092653;28;19912;-76
2022/10/06 09:37:51;;;;;;;;;;;15.00;99.90;;;;;;5092987;28;19914;-76
2022/10/06 09:40:55;;;;;;;;;;;15.00;99.90;;;;;;5096717;28;20356;-76
2022/10/06 09:43:20;;;;;;;;;;;15.00;99.90;;;;;;5090211;28;20375;-75
2022/10/06 09:45:46;;;;;;;;;;;15.00;99.90;;;;;;5096862;28;19999;-75
2022/10/06 09:48:19;;;;;;;;;;;14.90;99.90;;;;;;5096413;28;19933;-75
2022/10/06 09:51:05;;;;;;;;;;;14.90;99.90;;;;;;5096985;28;19913;-75
2022/10/06 09:53:30;;;;;;;;;;;14.80;99.90;;;;;;5096679;28;19912;-75
2022/10/06 09:55:56;;;;;;;;;;;14.90;99.90;;;;;;5096234;28;19915;-75
2022/10/06 09:58:28;;;;;;;;;;;14.90;99.90;;;;;;5096728;28;19947;-75
2022/10/06 10:00:55;;;;;;;;;;;15.10;99.90;;;;;;5096231;28;19934;-75
2022/10/06 10:03:21;;;;;;;;;;;15.10;99.90;;;;;;5096666;28;19915;-75
2022/10/06 10:05:50;;;;;;;;;;;15.10;99.90;;;;;;5096600;28;19968;-76
2022/10/06 10:08:20;;;;;;;;;;;15.10;99.90;;;;;;5095455;28;20388;-76
2022/10/06 10:10:47;;;;;;;;;;;15.10;99.90;;;;;;5095899;28;19963;-76
2022/10/06 10:13:35;;;;;;;;;;;15.30;99.90;;;;;;5095796;28;19921;-76
2022/10/06 10:16:01;;;;;;;;;;;15.50;99.90;;;;;;5095729;28;20496;-76
2022/10/06 10:18:29;;;;;;;;;;;15.60;99.90;;;;;;5096566;28;19912;-76
2022/10/06 10:20:57;;;;;;;;;;;15.70;99.90;;;;;;5096470;28;19909;-76
2022/10/06 10:23:31;;;;;;;;;;;15.80;99.90;;;;;;5096249;28;19909;-76
2022/10/06 10:26:01;;;;;;;;;;;15.90;99.90;;;;;;5095335;28;20494;-75
2022/10/06 10:28:27;;;;;;;;;;;16.00;99.90;;;;;;5096208;28;19965;-75
2022/10/06 10:30:58;;;;;;;;;;;16.00;99.90;;;;;;5096026;28;19994;-75
2022/10/06 10:33:44;;;;;;;;;;;16.10;99.90;;;;;;5095574;28;19915;-75
2022/10/06 10:36:12;;;;;;;;;;;16.20;99.90;;;;;;5087316;28;19915;-75
2022/10/06 10:38:39;;;;;;;;;;;16.30;99.90;;;;;;5095437;28;19909;-75
2022/10/06 10:41:05;;;;;;;;;;;16.20;99.90;;;;;;5094646;28;19908;-75
2022/10/06 10:43:34;;;;;;;;;;;16.20;99.90;;;;;;5095956;28;19920;-75
2022/10/06 10:46:03;;;;;;;;;;;16.20;99.90;;;;;;5095392;28;19908;-74
2022/10/06 10:48:29;;;;;;;;;;;16.20;99.90;;;;;;5095972;28;19912;-76
2022/10/06 10:51:17;;;;;;;;;;;16.20;99.90;;;;;;5095371;28;19912;-76
2022/10/06 10:53:55;;;;;;;;;;;16.20;99.90;;;;;;5095415;28;19908;-75
2022/10/06 10:56:22;;;;;;;;;;;16.30;99.90;;;;;;5095040;28;19908;-76
2022/10/06 10:58:51;;;;;;;;;;;16.30;99.90;;;;;;5095613;28;19908;-76
2022/10/06 11:01:17;;;;;;;;;;;16.30;99.90;;;;;;5093688;28;19944;-75
2022/10/06 11:03:42;;;;;;;;;;;16.30;99.90;;;;;;5095708;28;20101;-76
2022/10/06 11:06:13;;;;;;;;;;;16.40;99.90;;;;;;5094678;28;19915;-75
2022/10/06 11:08:45;;;;;;;;;;;16.40;99.90;;;;;;5095238;28;19960;-75
2022/10/06 11:11:14;;;;;;;;;;;16.40;99.90;;;;;;5094173;28;19965;-76
2022/10/06 11:13:46;;;;;;;;;;;16.50;99.90;;;;;;5095545;28;19915;-76
2022/10/06 11:16:21;;;;;;;;;;;16.60;99.90;;;;;;5094761;28;19995;-76
2022/10/06 11:18:53;;;;;;;;;;;16.70;99.90;;;;;;5095308;28;20075;-75
2022/10/06 11:21:20;;;;;;;;;;;16.70;99.90;;;;;;5094619;28;19919;-75
2022/10/06 11:23:59;;;;;;;;;;;16.70;99.90;;;;;;5094967;28;19912;-76
2022/10/06 11:26:31;;;;;;;;;;;16.70;99.90;;;;;;5094862;28;19916;-75
2022/10/06 11:28:56;;;;;;;;;;;16.70;99.90;;;;;;5095116;28;20372;-75
2022/10/06 11:31:29;;;;;;;;;;;16.80;99.90;;;;;;5094520;28;19961;-75
2022/10/06 11:33:58;;;;;;;;;;;16.90;99.90;;;;;;5095097;28;19908;-75
2022/10/06 11:36:33;;;;;;;;;;;16.90;99.90;;;;;;5094338;28;20442;-75
2022/10/06 11:39:11;;;;;;;;;;;16.90;99.90;;;;;;5094542;28;19953;-75
2022/10/06 11:41:41;;;;;;;;;;;16.90;99.90;;;;;;5094581;28;19908;-75
2022/10/06 11:44:15;;;;;;;;;;;16.90;99.90;;;;;;5093583;28;19926;-75
2022/10/06 11:46:48;;;;;;;;;;;16.90;99.90;;;;;;5094647;28;19908;-76
2022/10/06 11:49:30;;;;;;;;;;;16.90;99.90;;;;;;5092813;28;19912;-76
2022/10/06 11:51:56;;;;;;;;;;;16.90;99.90;;;;;;5094836;28;19975;-76
2022/10/06 11:54:40;;;;;;;;;;;17.00;99.90;;;;;;5093503;28;20381;-76
2022/10/06 11:57:20;;;;;;;;;;;17.10;99.90;;;;;;5093578;28;19916;-76
2022/10/06 11:59:46;;;;;;;;;;;17.20;99.90;;;;;;5094447;28;19912;-76
2022/10/06 12:02:32;;;;;;;;;;;17.30;99.90;;;;;;5092428;28;20057;-74
2022/10/06 12:05:24;;;;;;;;;;;17.40;99.90;;;;;;5086526;28;20018;-76
2022/10/06 12:07:56;;;;;;;;;;;17.40;99.90;;;;;;5091570;28;19934;-76
2022/10/06 12:10:28;;;;;;;;;;;17.40;99.90;;;;;;5092336;28;19908;-76
2022/10/06 12:12:56;;;;;;;;;;;17.40;99.90;;;;;;5093857;28;20444;-76
2022/10/06 12:15:44;;;;;;;;;;;17.50;99.90;;;;;;5093553;28;20662;-75
2022/10/06 12:18:31;;;;;;;;;;;17.50;99.90;;;;;;5092870;28;19908;-76
2022/10/06 12:21:10;;;;;;;;;;;17.60;99.90;;;;;;5093751;28;19940;-75
2022/10/06 12:23:35;;;;;;;;;;;17.60;99.90;;;;;;5093896;28;19958;-76
2022/10/06 12:26:13;;;;;;;;;;;17.70;99.90;;;;;;5094233;28;20341;-76
2022/10/06 12:28:47;;;;;;;;;;;17.60;99.90;;;;;;5094122;28;20010;-75
2022/10/06 12:31:31;;;;;;;;;;;17.60;99.90;;;;;;5093422;28;19923;-75
2022/10/06 12:33:56;;;;;;;;;;;17.60;99.90;;;;;;5093488;28;19961;-76
2022/10/06 12:36:31;;;;;;;;;;;17.70;99.90;;;;;;5093036;28;19908;-75
2022/10/06 12:39:06;;;;;;;;;;;17.60;99.90;;;;;;5092574;28;20270;-75
2022/10/06 12:41:51;;;;;;;;;;;17.60;99.90;;;;;;5093320;28;20438;-75
2022/10/06 12:44:21;;;;;;;;;;;17.60;99.90;;;;;;5092962;28;20285;-75
2022/10/06 12:46:48;;;;;;;;;;;17.60;99.90;;;;;;5093222;28;20021;-76
2022/10/06 12:49:55;;;;;;;;;;;17.60;99.90;;;;;;5092292;28;20197;-75
2022/10/06 12:52:39;;;;;;;;;;;17.60;99.90;;;;;;5050227;28;20410;-76
2022/10/06 12:55:26;;;;;;;;;;;17.50;99.90;;;;;;5050465;28;19909;-76
2022/10/06 12:57:52;;;;;;;;;;;17.50;99.90;;;;;;5050937;28;19956;-76
2022/10/06 13:00:30;;;;;;;;;;;17.50;99.90;;;;;;5050155;28;20011;-76
2022/10/06 13:02:57;;;;;;;;;;;17.60;99.90;;;;;;5050777;28;19909;-75
2022/10/06 13:05:22;;;;;;;;;;;17.60;99.90;;;;;;5049976;28;19959;-77
2022/10/06 13:07:56;;;;;;;;;;;17.70;99.90;;;;;;5050705;28;19915;-75
2022/10/06 13:10:22;;;;;;;;;;;17.70;99.90;;;;;;5049933;28;19935;-78
2022/10/06 13:12:50;;;;;;;;;;;17.80;99.90;;;;;;5050164;28;20352;-74
2022/10/06 13:15:16;;;;;;;;;;;17.80;99.90;;;;;;5050062;28;19972;-75
2022/10/06 13:17:42;;;;;;;;;;;17.80;99.90;;;;;;5050422;28;19916;-76
2022/10/06 13:20:20;;;;;;;;;;;17.80;99.90;;;;;;5050145;28;20423;-75
2022/10/06 13:22:53;;;;;;;;;;;17.80;99.90;;;;;;5066117;28;19912;-76
2022/10/06 13:25:19;;;;;;;;;;;17.80;99.90;;;;;;5092496;28;19908;-76
2022/10/06 13:27:49;;;;;;;;;;;17.80;99.90;;;;;;5092664;28;20049;-76
2022/10/06 13:30:24;;;;;;;;;;;17.80;99.90;;;;;;5092467;28;20380;-75
2022/10/06 13:32:53;;;;;;;;;;;17.80;99.90;;;;;;5093440;28;20268;-77
2022/10/06 13:35:21;;;;;;;;;;;17.70;99.90;;;;;;5092222;28;20384;-77
2022/10/06 13:37:46;;;;;;;;;;;17.70;99.90;;;;;;5092755;28;20396;-77
2022/10/06 13:40:16;;;;;;;;;;;17.60;99.90;;;;;;5092772;28;19912;-77
2022/10/06 13:42:45;;;;;;;;;;;17.50;99.90;;;;;;5091363;28;19908;-77
2022/10/06 13:45:13;;;;;;;;;;;17.40;99.90;;;;;;5091964;28;20325;-77
2022/10/06 13:47:39;;;;;;;;;;;17.30;99.90;;;;;;5092836;28;19928;-77
2022/10/06 13:50:13;;;;;;;;;;;17.20;99.90;;;;;;5092726;28;19921;-77
2022/10/06 13:52:46;;;;;;;;;;;17.20;99.90;;;;;;5092462;28;19914;-77
2022/10/06 13:55:17;;;;;;;;;;;17.00;99.90;;;;;;5091825;28;20349;-76
2022/10/06 13:57:44;;;;;;;;;;;16.80;99.90;;;;;;5092698;28;19951;-76
2022/10/06 14:00:20;;;;;;;;;;;16.50;99.90;;;;;;5092384;28;20002;-80
2022/10/06 14:02:46;;;;;;;;;;;16.30;99.90;;;;;;5092629;28;19912;-79
2022/10/06 14:05:21;;;;;;;;;;;16.10;99.90;;;;;;5091875;28;19908;-81
2022/10/06 14:07:48;;;;;;;;;;;15.90;99.90;;;;;;5092551;28;19963;-81
2022/10/06 14:10:21;;;;;;;;;;;15.90;99.90;;;;;;5090808;28;20384;-78
2022/10/06 14:12:47;;;;;;;;;;;15.80;99.90;;;;;;5092361;28;19951;-77
2022/10/06 14:15:36;;;;;;;;;;;15.80;99.90;;;;;;5091521;28;19909;-75
2022/10/06 14:18:03;;;;;;;;;;;15.80;99.90;;;;;;5092608;28;19908;-77
2022/10/06 14:20:34;;;;;;;;;;;15.90;99.90;;;;;;5092092;28;20003;-78
2022/10/06 14:23:00;;;;;;;;;;;16.00;99.90;;;;;;5091485;28;19931;-75
2022/10/06 14:25:25;;;;;;;;;;;16.10;99.90;;;;;;5094546;28;19912;-75
2022/10/06 14:27:51;;;;;;;;;;;16.20;99.90;;;;;;5096058;28;19965;-75
2022/10/06 14:30:17;;;;;;;;;;;16.20;99.90;;;;;;5095607;28;19920;-75
2022/10/06 14:32:42;;;;;;;;;;;16.20;99.90;;;;;;5096515;28;19909;-76
2022/10/06 14:35:11;;;;;;;;;;;16.20;99.90;;;;;;5096348;28;19908;-77
2022/10/06 14:37:36;;;;;;;;;;;16.40;99.90;;;;;;5095815;28;19912;-75